Terminal Aerodrome Forecast
Issued by NWS

Home | Current Version | Previous Version | Text Only | Print | Product List | Glossary On
Versions: 1 2 3 4 5 6 7 8 9 10 11 12 13 14 15 16 17 18 19 20 21
593
FTUS46 KLOX 291735
TAFBUR
TAF
KBUR 291735Z 2918/3018 02008KT P6SM SKC WS010/06030KT
     FM291900 VRB05KT P6SM SKC
     FM292200 15010KT P6SM SKC
     FM300200 VRB03KT P6SM SKC=

USA.gov is the U.S. government's official web portal to all federal, state and local government web resources and services.